sensor_id;sensor_type;location;lat;lon;timestamp;P1;durP1;ratioP1;P2;durP2;ratioP2
78656;SDS011;67973;0.000;0.000;2023-04-03T08:31:05;1061.63;;;986.65;;
78656;SDS011;67973;0.000;0.000;2023-04-03T08:33:33;941.35;;;890.95;;
78656;SDS011;67973;0.000;0.000;2023-04-03T08:36:00;946.17;;;894.85;;
78656;SDS011;67973;0.000;0.000;2023-04-03T08:40:59;3.13;;;1.25;;
78656;SDS011;67973;0.000;0.000;2023-04-03T08:46:21;2.25;;;1.20;;
78656;SDS011;67973;0.000;0.000;2023-04-03T08:48:49;1.77;;;1.00;;
78656;SDS011;67973;0.000;0.000;2023-04-03T08:51:17;2.30;;;1.30;;
78656;SDS011;67973;0.000;0.000;2023-04-03T08:53:46;2.40;;;1.02;;
78656;SDS011;67973;0.000;0.000;2023-04-03T08:56:14;2.67;;;1.00;;
78656;SDS011;67973;0.000;0.000;2023-04-03T08:58:50;1.83;;;1.10;;
78656;SDS011;67973;0.000;0.000;2023-04-03T09:01:32;2.92;;;1.10;;
78656;SDS011;67973;0.000;0.000;2023-04-03T09:04:05;3.40;;;1.05;;
78656;SDS011;67973;0.000;0.000;2023-04-03T09:06:35;3.10;;;1.08;;
78656;SDS011;67973;0.000;0.000;2023-04-03T09:09:06;3.22;;;1.63;;
78656;SDS011;67973;0.000;0.000;2023-04-03T09:11:58;2.40;;;1.20;;
78656;SDS011;67973;0.000;0.000;2023-04-03T09:21:56;2.35;;;1.17;;
78656;SDS011;67973;0.000;0.000;2023-04-03T09:24:22;3.45;;;1.30;;
78656;SDS011;67973;0.000;0.000;2023-04-03T09:26:53;2.53;;;1.30;;
78656;SDS011;67973;0.000;0.000;2023-04-03T09:29:24;2.92;;;1.10;;
78656;SDS011;67973;0.000;0.000;2023-04-03T09:31:52;1.40;;;0.88;;
78656;SDS011;67973;0.000;0.000;2023-04-03T09:34:26;2.35;;;1.30;;
78656;SDS011;67973;0.000;0.000;2023-04-03T09:36:54;2.00;;;1.13;;
78656;SDS011;67973;0.000;0.000;2023-04-03T09:39:22;5.57;;;1.10;;
78656;SDS011;67973;0.000;0.000;2023-04-03T09:42:02;3.40;;;1.27;;
78656;SDS011;67973;0.000;0.000;2023-04-03T09:46:55;3.63;;;1.10;;
78656;SDS011;67973;0.000;0.000;2023-04-03T09:49:21;3.15;;;1.40;;
78656;SDS011;67973;0.000;0.000;2023-04-03T09:51:47;2.63;;;1.20;;
78656;SDS011;67973;0.000;0.000;2023-04-03T09:54:33;3.38;;;1.20;;
78656;SDS011;67973;0.000;0.000;2023-04-03T09:57:12;3.85;;;1.13;;
78656;SDS011;67973;0.000;0.000;2023-04-03T09:59:43;0.93;;;0.73;;
78656;SDS011;67973;0.000;0.000;2023-04-03T10:04:42;2.72;;;1.10;;
78656;SDS011;67973;0.000;0.000;2023-04-03T10:07:25;2.40;;;1.20;;
78656;SDS011;67973;0.000;0.000;2023-04-03T10:09:58;1.40;;;1.02;;
78656;SDS011;67973;0.000;0.000;2023-04-03T10:12:26;1.90;;;1.00;;
78656;SDS011;67973;0.000;0.000;2023-04-03T10:17:19;3.85;;;1.05;;
78656;SDS011;67973;0.000;0.000;2023-04-03T10:19:53;2.53;;;1.20;;
78656;SDS011;67973;0.000;0.000;2023-04-03T10:30:19;1.95;;;1.10;;
78656;SDS011;67973;0.000;0.000;2023-04-03T10:40:59;4.70;;;1.27;;
78656;SDS011;67973;0.000;0.000;2023-04-03T10:46:35;2.72;;;1.15;;
78656;SDS011;67973;0.000;0.000;2023-04-03T10:49:09;2.78;;;1.20;;
78656;SDS011;67973;0.000;0.000;2023-04-03T10:51:45;4.25;;;1.25;;
78656;SDS011;67973;0.000;0.000;2023-04-03T10:54:30;4.78;;;1.33;;
78656;SDS011;67973;0.000;0.000;2023-04-03T10:57:01;3.50;;;1.20;;
78656;SDS011;67973;0.000;0.000;2023-04-03T10:59:32;2.13;;;1.05;;
78656;SDS011;67973;0.000;0.000;2023-04-03T11:02:04;1.33;;;1.00;;
78656;SDS011;67973;0.000;0.000;2023-04-03T11:04:33;3.33;;;1.27;;
78656;SDS011;67973;0.000;0.000;2023-04-03T11:07:07;2.30;;;1.10;;
78656;SDS011;67973;0.000;0.000;2023-04-03T11:09:35;2.05;;;1.10;;
78656;SDS011;67973;0.000;0.000;2023-04-03T11:12:16;2.08;;;1.00;;
78656;SDS011;67973;0.000;0.000;2023-04-03T11:14:44;2.38;;;0.93;;
78656;SDS011;67973;0.000;0.000;2023-04-03T11:17:19;1.10;;;0.90;;
78656;SDS011;67973;0.000;0.000;2023-04-03T11:22:16;2.20;;;1.20;;
78656;SDS011;67973;0.000;0.000;2023-04-03T11:24:46;2.55;;;1.20;;
78656;SDS011;67973;0.000;0.000;2023-04-03T11:27:17;2.77;;;1.10;;
78656;SDS011;67973;0.000;0.000;2023-04-03T11:29:47;2.47;;;1.00;;
78656;SDS011;67973;0.000;0.000;2023-04-03T11:34:40;1.73;;;1.10;;
78656;SDS011;67973;0.000;0.000;2023-04-03T11:39:40;2.70;;;1.10;;
78656;SDS011;67973;0.000;0.000;2023-04-03T11:45:17;1.83;;;1.00;;
78656;SDS011;67973;0.000;0.000;2023-04-03T11:47:49;1.80;;;1.13;;
78656;SDS011;67973;0.000;0.000;2023-04-03T11:50:38;3.17;;;0.90;;
78656;SDS011;67973;0.000;0.000;2023-04-03T11:58:18;1089.20;;;999.90;;
78656;SDS011;67973;0.000;0.000;2023-04-03T12:01:54;895.35;;;824.17;;
78656;SDS011;67973;0.000;0.000;2023-04-03T12:09:33;1712.38;;;999.90;;
78656;SDS011;67973;0.000;0.000;2023-04-03T12:14:54;1765.47;;;999.90;;
78656;SDS011;67973;0.000;0.000;2023-04-03T12:19:49;1189.22;;;999.90;;
78656;SDS011;67973;0.000;0.000;2023-04-03T12:22:16;1592.30;;;999.90;;
78656;SDS011;67973;0.000;0.000;2023-04-03T12:24:46;1559.45;;;999.90;;
78656;SDS011;67973;0.000;0.000;2023-04-03T12:28:37;1615.20;;;999.90;;
78656;SDS011;67973;0.000;0.000;2023-04-03T12:31:04;1640.88;;;999.90;;
78656;SDS011;67973;0.000;0.000;2023-04-03T12:33:38;1645.80;;;999.90;;
78656;SDS011;67973;0.000;0.000;2023-04-03T12:36:08;1650.50;;;999.90;;
